sensor_id;sensor_type;location;lat;lon;timestamp;pressure;altitude;pressure_sealevel;temperature;humidity
59475;BME280;45288;51.136;16.928;2024-01-15T00:01:44;98217.72;;;2.81;100.00
59475;BME280;45288;51.136;16.928;2024-01-15T00:04:16;98209.03;;;2.94;100.00
59475;BME280;45288;51.136;16.928;2024-01-15T00:07:09;98195.66;;;3.11;100.00
59475;BME280;45288;51.136;16.928;2024-01-15T00:10:02;98188.06;;;3.32;100.00
59475;BME280;45288;51.136;16.928;2024-01-15T00:12:34;98179.69;;;3.40;100.00
59475;BME280;45288;51.136;16.928;2024-01-15T00:15:27;98180.88;;;3.47;100.00
59475;BME280;45288;51.136;16.928;2024-01-15T00:18:00;98174.25;;;3.20;100.00
59475;BME280;45288;51.136;16.928;2024-01-15T00:20:53;98174.50;;;3.28;100.00
59475;BME280;45288;51.136;16.928;2024-01-15T00:23:26;98172.84;;;3.61;100.00
59475;BME280;45288;51.136;16.928;2024-01-15T00:26:18;98160.56;;;3.18;100.00
59475;BME280;45288;51.136;16.928;2024-01-15T00:28:50;98150.91;;;3.32;100.00
59475;BME280;45288;51.136;16.928;2024-01-15T00:31:43;98152.09;;;3.61;100.00
59475;BME280;45288;51.136;16.928;2024-01-15T00:34:15;98143.63;;;3.37;100.00
59475;BME280;45288;51.136;16.928;2024-01-15T00:37:08;98134.06;;;3.37;100.00
59475;BME280;45288;51.136;16.928;2024-01-15T00:39:40;98130.88;;;3.45;100.00
59475;BME280;45288;51.136;16.928;2024-01-15T00:42:33;98131.13;;;3.42;100.00
59475;BME280;45288;51.136;16.928;2024-01-15T00:45:05;98127.53;;;2.98;100.00
59475;BME280;45288;51.136;16.928;2024-01-15T00:47:58;98114.00;;;3.17;100.00
59475;BME280;45288;51.136;16.928;2024-01-15T00:50:32;98111.78;;;3.35;100.00
59475;BME280;45288;51.136;16.928;2024-01-15T00:53:25;98102.81;;;3.50;100.00
59475;BME280;45288;51.136;16.928;2024-01-15T00:55:57;98102.69;;;3.18;100.00
59475;BME280;45288;51.136;16.928;2024-01-15T00:58:50;98097.63;;;3.05;100.00
59475;BME280;45288;51.136;16.928;2024-01-15T01:01:22;98101.47;;;2.88;100.00
59475;BME280;45288;51.136;16.928;2024-01-15T01:04:15;98094.28;;;2.92;100.00
59475;BME280;45288;51.136;16.928;2024-01-15T01:06:47;98088.97;;;2.82;100.00
59475;BME280;45288;51.136;16.928;2024-01-15T01:09:40;98086.16;;;2.85;100.00
59475;BME280;45288;51.136;16.928;2024-01-15T01:12:12;98090.75;;;2.81;100.00
59475;BME280;45288;51.136;16.928;2024-01-15T01:15:05;98088.25;;;2.80;100.00
59475;BME280;45288;51.136;16.928;2024-01-15T01:17:38;98086.25;;;2.72;100.00
59475;BME280;45288;51.136;16.928;2024-01-15T01:20:30;98078.69;;;2.69;100.00
59475;BME280;45288;51.136;16.928;2024-01-15T01:23:02;98081.25;;;2.58;100.00
59475;BME280;45288;51.136;16.928;2024-01-15T01:25:55;98081.25;;;2.58;100.00
59475;BME280;45288;51.136;16.928;2024-01-15T01:28:28;98084.38;;;2.74;100.00
59475;BME280;45288;51.136;16.928;2024-01-15T01:31:21;98083.50;;;2.62;100.00
59475;BME280;45288;51.136;16.928;2024-01-15T01:33:53;98083.09;;;2.45;100.00
59475;BME280;45288;51.136;16.928;2024-01-15T01:36:46;98076.03;;;2.47;100.00
59475;BME280;45288;51.136;16.928;2024-01-15T01:39:18;98067.13;;;2.51;100.00
59475;BME280;45288;51.136;16.928;2024-01-15T01:42:11;98066.63;;;2.46;100.00
59475;BME280;45288;51.136;16.928;2024-01-15T01:44:44;98061.66;;;2.43;100.00
59475;BME280;45288;51.136;16.928;2024-01-15T01:47:37;98051.84;;;2.35;100.00
59475;BME280;45288;51.136;16.928;2024-01-15T01:50:11;98053.53;;;2.36;100.00
59475;BME280;45288;51.136;16.928;2024-01-15T01:53:05;98057.44;;;2.42;100.00
59475;BME280;45288;51.136;16.928;2024-01-15T01:55:38;98055.41;;;2.34;100.00
59475;BME280;45288;51.136;16.928;2024-01-15T01:58:32;98065.19;;;2.42;100.00
59475;BME280;45288;51.136;16.928;2024-01-15T02:01:06;98055.09;;;2.50;100.00
59475;BME280;45288;51.136;16.928;2024-01-15T02:04:00;98054.84;;;2.53;100.00
59475;BME280;45288;51.136;16.928;2024-01-15T02:06:33;98057.56;;;2.51;100.00
59475;BME280;45288;51.136;16.928;2024-01-15T02:09:26;98056.53;;;2.54;100.00
59475;BME280;45288;51.136;16.928;2024-01-15T02:11:58;98064.78;;;2.24;100.00
59475;BME280;45288;51.136;16.928;2024-01-15T02:14:51;98057.75;;;2.02;100.00
59475;BME280;45288;51.136;16.928;2024-01-15T02:17:32;98051.13;;;1.98;100.00
59475;BME280;45288;51.136;16.928;2024-01-15T02:20:17;98045.81;;;2.12;100.00
59475;BME280;45288;51.136;16.928;2024-01-15T02:23:10;98043.53;;;2.07;100.00
59475;BME280;45288;51.136;16.928;2024-01-15T02:25:56;98029.66;;;2.08;100.00
59475;BME280;45288;51.136;16.928;2024-01-15T02:28:35;98043.69;;;2.17;100.00
59475;BME280;45288;51.136;16.928;2024-01-15T02:31:23;98026.81;;;2.35;100.00
59475;BME280;45288;51.136;16.928;2024-01-15T02:34:02;98027.25;;;2.29;100.00
59475;BME280;45288;51.136;16.928;2024-01-15T02:36:48;98029.88;;;2.40;100.00
59475;BME280;45288;51.136;16.928;2024-01-15T02:39:27;98017.28;;;2.47;100.00
59475;BME280;45288;51.136;16.928;2024-01-15T02:42:13;98026.00;;;2.46;100.00
59475;BME280;45288;51.136;16.928;2024-01-15T02:44:52;98028.78;;;2.32;100.00
59475;BME280;45288;51.136;16.928;2024-01-15T02:47:38;98023.59;;;2.32;100.00
59475;BME280;45288;51.136;16.928;2024-01-15T02:50:18;98014.50;;;2.15;100.00
59475;BME280;45288;51.136;16.928;2024-01-15T02:53:03;98005.03;;;2.03;100.00
59475;BME280;45288;51.136;16.928;2024-01-15T02:55:42;98004.78;;;1.94;100.00
59475;BME280;45288;51.136;16.928;2024-01-15T02:58:28;97996.72;;;2.10;100.00
59475;BME280;45288;51.136;16.928;2024-01-15T03:01:07;97992.50;;;2.09;100.00
59475;BME280;45288;51.136;16.928;2024-01-15T03:03:54;97982.97;;;2.21;100.00
59475;BME280;45288;51.136;16.928;2024-01-15T03:06:41;97993.09;;;2.13;100.00
59475;BME280;45288;51.136;16.928;2024-01-15T03:09:34;97993.78;;;2.15;100.00
59475;BME280;45288;51.136;16.928;2024-01-15T03:12:07;97986.28;;;2.23;100.00
59475;BME280;45288;51.136;16.928;2024-01-15T03:15:00;97979.66;;;2.19;100.00
59475;BME280;45288;51.136;16.928;2024-01-15T03:17:32;97984.75;;;2.21;100.00
59475;BME280;45288;51.136;16.928;2024-01-15T03:20:25;97980.19;;;2.35;100.00
59475;BME280;45288;51.136;16.928;2024-01-15T03:22:57;97975.03;;;2.35;100.00
59475;BME280;45288;51.136;16.928;2024-01-15T03:25:50;97971.66;;;2.11;100.00
59475;BME280;45288;51.136;16.928;2024-01-15T03:28:22;97975.25;;;2.32;100.00
59475;BME280;45288;51.136;16.928;2024-01-15T03:31:16;97983.84;;;2.44;100.00
59475;BME280;45288;51.136;16.928;2024-01-15T03:33:56;97977.13;;;2.30;100.00
59475;BME280;45288;51.136;16.928;2024-01-15T03:36:41;97976.31;;;2.30;100.00
59475;BME280;45288;51.136;16.928;2024-01-15T03:39:21;97967.69;;;2.29;100.00
59475;BME280;45288;51.136;16.928;2024-01-15T03:42:07;97972.03;;;2.17;100.00
59475;BME280;45288;51.136;16.928;2024-01-15T03:44:46;97973.19;;;2.13;100.00
59475;BME280;45288;51.136;16.928;2024-01-15T03:47:32;97965.09;;;2.29;100.00
59475;BME280;45288;51.136;16.928;2024-01-15T03:50:11;97964.75;;;2.23;100.00
59475;BME280;45288;51.136;16.928;2024-01-15T03:52:57;97964.28;;;2.29;100.00
59475;BME280;45288;51.136;16.928;2024-01-15T03:55:36;97958.38;;;2.27;100.00
59475;BME280;45288;51.136;16.928;2024-01-15T03:58:22;97960.63;;;2.20;100.00
59475;BME280;45288;51.136;16.928;2024-01-15T04:01:01;97959.00;;;2.42;100.00
59475;BME280;45288;51.136;16.928;2024-01-15T04:03:47;97948.66;;;2.42;100.00
59475;BME280;45288;51.136;16.928;2024-01-15T04:06:33;97950.44;;;2.41;100.00
59475;BME280;45288;51.136;16.928;2024-01-15T04:09:26;97939.34;;;2.28;100.00
59475;BME280;45288;51.136;16.928;2024-01-15T04:11:58;97932.97;;;2.32;100.00
59475;BME280;45288;51.136;16.928;2024-01-15T04:14:51;97923.25;;;2.35;100.00
59475;BME280;45288;51.136;16.928;2024-01-15T04:17:23;97926.31;;;2.40;100.00
59475;BME280;45288;51.136;16.928;2024-01-15T04:20:16;97930.75;;;2.27;100.00
59475;BME280;45288;51.136;16.928;2024-01-15T04:22:48;97935.56;;;2.32;100.00
59475;BME280;45288;51.136;16.928;2024-01-15T04:25:41;97926.88;;;2.33;100.00
59475;BME280;45288;51.136;16.928;2024-01-15T04:28:14;97919.69;;;2.36;100.00
59475;BME280;45288;51.136;16.928;2024-01-15T04:31:07;97914.31;;;2.51;100.00
59475;BME280;45288;51.136;16.928;2024-01-15T04:33:46;97910.06;;;2.38;100.00
59475;BME280;45288;51.136;16.928;2024-01-15T04:36:38;97903.69;;;2.43;100.00
59475;BME280;45288;51.136;16.928;2024-01-15T04:39:17;97901.66;;;2.35;100.00
59475;BME280;45288;51.136;16.928;2024-01-15T04:42:03;97899.31;;;2.32;100.00
59475;BME280;45288;51.136;16.928;2024-01-15T04:44:42;97889.44;;;2.26;100.00
59475;BME280;45288;51.136;16.928;2024-01-15T04:47:28;97895.00;;;2.44;100.00
59475;BME280;45288;51.136;16.928;2024-01-15T04:50:08;97896.28;;;2.49;100.00
59475;BME280;45288;51.136;16.928;2024-01-15T04:52:53;97902.16;;;2.40;100.00
59475;BME280;45288;51.136;16.928;2024-01-15T04:55:33;97898.03;;;2.37;100.00
59475;BME280;45288;51.136;16.928;2024-01-15T04:58:18;97903.00;;;2.40;100.00
59475;BME280;45288;51.136;16.928;2024-01-15T05:00:57;97901.47;;;2.38;100.00
59475;BME280;45288;51.136;16.928;2024-01-15T05:03:43;97900.63;;;2.37;100.00
59475;BME280;45288;51.136;16.928;2024-01-15T05:06:22;97903.00;;;2.40;100.00
59475;BME280;45288;51.136;16.928;2024-01-15T05:09:15;97903.69;;;2.43;100.00
59475;BME280;45288;51.136;16.928;2024-01-15T05:11:48;97900.97;;;2.44;100.00
59475;BME280;45288;51.136;16.928;2024-01-15T05:14:40;97901.47;;;2.38;100.00
59475;BME280;45288;51.136;16.928;2024-01-15T05:17:20;97911.44;;;2.31;100.00
59475;BME280;45288;51.136;16.928;2024-01-15T05:20:06;97906.13;;;2.22;100.00
59475;BME280;45288;51.136;16.928;2024-01-15T05:22:45;97906.84;;;2.12;100.00
59475;BME280;45288;51.136;16.928;2024-01-15T05:25:31;97911.44;;;2.20;100.00
59475;BME280;45288;51.136;16.928;2024-01-15T05:28:10;97918.00;;;2.02;100.00
59475;BME280;45288;51.136;16.928;2024-01-15T05:30:56;97915.03;;;1.60;100.00
59475;BME280;45288;51.136;16.928;2024-01-15T05:33:36;97909.72;;;1.50;100.00
59475;BME280;45288;51.136;16.928;2024-01-15T05:36:21;97903.28;;;1.56;100.00
59475;BME280;45288;51.136;16.928;2024-01-15T05:39:00;97904.63;;;1.48;100.00
59475;BME280;45288;51.136;16.928;2024-01-15T05:41:46;97913.13;;;1.50;100.00
59475;BME280;45288;51.136;16.928;2024-01-15T05:44:25;97907.97;;;1.62;100.00
59475;BME280;45288;51.136;16.928;2024-01-15T05:47:11;97910.53;;;1.50;100.00
59475;BME280;45288;51.136;16.928;2024-01-15T05:49:51;97908.88;;;1.49;100.00
59475;BME280;45288;51.136;16.928;2024-01-15T05:52:36;97923.13;;;1.55;100.00
59475;BME280;45288;51.136;16.928;2024-01-15T05:55:16;97912.94;;;1.65;100.00
59475;BME280;45288;51.136;16.928;2024-01-15T05:58:01;97908.59;;;1.65;100.00
59475;BME280;45288;51.136;16.928;2024-01-15T06:00:41;97913.53;;;1.68;100.00
59475;BME280;45288;51.136;16.928;2024-01-15T06:03:28;97916.84;;;1.70;100.00
59475;BME280;45288;51.136;16.928;2024-01-15T06:06:22;97915.75;;;1.62;100.00
59475;BME280;45288;51.136;16.928;2024-01-15T06:09:15;97918.22;;;1.63;100.00
59475;BME280;45288;51.136;16.928;2024-01-15T06:11:47;97915.50;;;1.65;100.00
59475;BME280;45288;51.136;16.928;2024-01-15T06:14:40;97913.91;;;1.75;100.00
59475;BME280;45288;51.136;16.928;2024-01-15T06:17:14;97910.41;;;1.76;100.00
59475;BME280;45288;51.136;16.928;2024-01-15T06:20:07;97910.25;;;1.78;100.00
59475;BME280;45288;51.136;16.928;2024-01-15T06:22:40;97921.44;;;1.78;100.00
59475;BME280;45288;51.136;16.928;2024-01-15T06:25:32;97916.00;;;1.70;100.00
59475;BME280;45288;51.136;16.928;2024-01-15T06:28:05;97929.06;;;1.68;100.00
59475;BME280;45288;51.136;16.928;2024-01-15T06:30:57;97923.75;;;1.70;100.00
59475;BME280;45288;51.136;16.928;2024-01-15T06:33:30;97932.78;;;1.64;100.00
59475;BME280;45288;51.136;16.928;2024-01-15T06:36:22;97931.88;;;1.65;100.00
59475;BME280;45288;51.136;16.928;2024-01-15T06:38:55;97922.97;;;1.81;100.00
59475;BME280;45288;51.136;16.928;2024-01-15T06:41:47;97941.22;;;1.79;100.00
59475;BME280;45288;51.136;16.928;2024-01-15T06:44:19;97937.41;;;1.72;100.00
59475;BME280;45288;51.136;16.928;2024-01-15T06:47:12;97937.88;;;1.66;100.00
59475;BME280;45288;51.136;16.928;2024-01-15T06:49:45;97946.22;;;1.69;100.00
59475;BME280;45288;51.136;16.928;2024-01-15T06:52:37;97940.31;;;1.67;100.00
59475;BME280;45288;51.136;16.928;2024-01-15T06:55:10;97951.13;;;1.61;100.00
59475;BME280;45288;51.136;16.928;2024-01-15T06:58:02;97963.25;;;1.61;100.00
59475;BME280;45288;51.136;16.928;2024-01-15T07:00:34;97947.31;;;1.54;100.00
59475;BME280;45288;51.136;16.928;2024-01-15T07:03:27;97966.25;;;1.55;100.00
59475;BME280;45288;51.136;16.928;2024-01-15T07:06:00;97964.16;;;1.60;100.00
59475;BME280;45288;51.136;16.928;2024-01-15T07:08:52;97956.06;;;1.64;100.00
59475;BME280;45288;51.136;16.928;2024-01-15T07:11:25;97955.47;;;1.61;100.00
59475;BME280;45288;51.136;16.928;2024-01-15T07:14:18;97957.34;;;1.59;100.00
59475;BME280;45288;51.136;16.928;2024-01-15T07:16:51;97961.69;;;1.82;100.00
59475;BME280;45288;51.136;16.928;2024-01-15T07:19:43;97964.09;;;1.72;100.00
59475;BME280;45288;51.136;16.928;2024-01-15T07:22:22;97972.91;;;1.70;100.00
59475;BME280;45288;51.136;16.928;2024-01-15T07:25:08;97982.84;;;1.76;100.00
59475;BME280;45288;51.136;16.928;2024-01-15T07:27:47;97981.56;;;1.82;100.00
59475;BME280;45288;51.136;16.928;2024-01-15T07:30:33;97983.31;;;1.81;100.00
59475;BME280;45288;51.136;16.928;2024-01-15T07:33:13;97989.41;;;1.80;100.00
59475;BME280;45288;51.136;16.928;2024-01-15T07:35:58;97977.53;;;1.78;100.00
59475;BME280;45288;51.136;16.928;2024-01-15T07:38:38;97966.59;;;1.74;100.00
59475;BME280;45288;51.136;16.928;2024-01-15T07:41:23;97983.53;;;1.78;100.00
59475;BME280;45288;51.136;16.928;2024-01-15T07:44:03;97968.97;;;1.88;100.00
59475;BME280;45288;51.136;16.928;2024-01-15T07:46:49;97973.59;;;1.96;100.00
59475;BME280;45288;51.136;16.928;2024-01-15T07:49:28;97973.75;;;2.06;100.00
59475;BME280;45288;51.136;16.928;2024-01-15T07:52:14;97947.28;;;2.02;100.00
59475;BME280;45288;51.136;16.928;2024-01-15T07:54:53;97947.63;;;2.09;100.00
59475;BME280;45288;51.136;16.928;2024-01-15T07:57:39;97946.94;;;2.07;100.00
59475;BME280;45288;51.136;16.928;2024-01-15T08:00:19;97947.06;;;2.05;100.00
59475;BME280;45288;51.136;16.928;2024-01-15T08:03:04;97950.72;;;2.14;100.00
59475;BME280;45288;51.136;16.928;2024-01-15T08:05:43;97946.50;;;2.24;100.00
59475;BME280;45288;51.136;16.928;2024-01-15T08:08:38;97932.88;;;2.33;100.00
59475;BME280;45288;51.136;16.928;2024-01-15T08:11:11;97936.03;;;2.26;100.00
59475;BME280;45288;51.136;16.928;2024-01-15T08:14:03;97947.69;;;2.43;100.00
59475;BME280;45288;51.136;16.928;2024-01-15T08:16:36;97944.19;;;2.32;100.00
59475;BME280;45288;51.136;16.928;2024-01-15T08:19:29;97941.22;;;2.37;100.00
59475;BME280;45288;51.136;16.928;2024-01-15T08:22:02;97953.34;;;2.48;100.00
59475;BME280;45288;51.136;16.928;2024-01-15T08:24:54;97941.38;;;2.47;100.00
59475;BME280;45288;51.136;16.928;2024-01-15T08:27:27;97940.88;;;2.30;100.00
59475;BME280;45288;51.136;16.928;2024-01-15T08:30:19;97946.28;;;2.27;100.00
59475;BME280;45288;51.136;16.928;2024-01-15T08:32:56;97948.50;;;2.21;100.00
59475;BME280;45288;51.136;16.928;2024-01-15T08:35:49;97947.69;;;2.20;100.00
59475;BME280;45288;51.136;16.928;2024-01-15T08:38:22;97947.63;;;2.09;100.00
59475;BME280;45288;51.136;16.928;2024-01-15T08:41:14;97936.84;;;2.15;100.00
59475;BME280;45288;51.136;16.928;2024-01-15T08:43:47;97941.06;;;2.16;100.00
59475;BME280;45288;51.136;16.928;2024-01-15T08:46:39;97945.06;;;2.09;100.00
59475;BME280;45288;51.136;16.928;2024-01-15T08:49:12;97940.03;;;2.18;100.00
59475;BME280;45288;51.136;16.928;2024-01-15T08:52:04;97943.66;;;2.16;100.00
59475;BME280;45288;51.136;16.928;2024-01-15T08:54:37;97949.53;;;2.07;100.00
59475;BME280;45288;51.136;16.928;2024-01-15T08:57:29;97962.00;;;2.13;100.00
59475;BME280;45288;51.136;16.928;2024-01-15T09:00:02;97956.38;;;2.19;97.41
59475;BME280;45288;51.136;16.928;2024-01-15T09:02:54;97949.78;;;2.15;95.64
59475;BME280;45288;51.136;16.928;2024-01-15T09:05:26;97940.75;;;2.21;96.33
59475;BME280;45288;51.136;16.928;2024-01-15T09:08:19;97950.28;;;2.20;96.68
59475;BME280;45288;51.136;16.928;2024-01-15T09:11:13;97950.53;;;2.28;95.59
59475;BME280;45288;51.136;16.928;2024-01-15T09:13:52;97963.22;;;2.20;96.40
59475;BME280;45288;51.136;16.928;2024-01-15T09:16:38;97946.59;;;2.11;95.43
59475;BME280;45288;51.136;16.928;2024-01-15T09:19:18;97943.00;;;2.25;95.69
59475;BME280;45288;51.136;16.928;2024-01-15T09:22:03;97953.13;;;2.28;96.17
59475;BME280;45288;51.136;16.928;2024-01-15T09:24:42;97949.09;;;2.24;95.21
59475;BME280;45288;51.136;16.928;2024-01-15T09:27:28;97950.75;;;2.25;95.27
59475;BME280;45288;51.136;16.928;2024-01-15T09:30:08;97954.66;;;2.31;95.87
59475;BME280;45288;51.136;16.928;2024-01-15T09:32:54;97941.72;;;2.42;95.11
59475;BME280;45288;51.136;16.928;2024-01-15T09:35:34;97950.44;;;2.52;94.12
59475;BME280;45288;51.136;16.928;2024-01-15T09:38:20;97954.31;;;2.35;93.21
59475;BME280;45288;51.136;16.928;2024-01-15T09:40:59;97961.22;;;2.35;93.41
59475;BME280;45288;51.136;16.928;2024-01-15T09:43:44;97955.94;;;2.36;94.01
59475;BME280;45288;51.136;16.928;2024-01-15T09:46:25;97961.34;;;2.33;93.50
59475;BME280;45288;51.136;16.928;2024-01-15T09:49:10;97963.09;;;2.22;93.78
59475;BME280;45288;51.136;16.928;2024-01-15T09:51:50;97961.59;;;2.42;93.60
59475;BME280;45288;51.136;16.928;2024-01-15T09:54:37;97973.63;;;2.54;93.04
59475;BME280;45288;51.136;16.928;2024-01-15T09:57:18;97967.41;;;2.56;92.49
59475;BME280;45288;51.136;16.928;2024-01-15T10:00:11;97948.41;;;2.45;90.00
59475;BME280;45288;51.136;16.928;2024-01-15T10:02:42;97950.91;;;2.46;91.37
59475;BME280;45288;51.136;16.928;2024-01-15T10:05:35;97954.78;;;2.52;90.10
59475;BME280;45288;51.136;16.928;2024-01-15T10:08:08;97947.13;;;2.50;91.18
59475;BME280;45288;51.136;16.928;2024-01-15T10:11:00;97943.72;;;2.38;90.25
59475;BME280;45288;51.136;16.928;2024-01-15T10:13:34;97950.28;;;2.43;90.90
59475;BME280;45288;51.136;16.928;2024-01-15T10:16:26;97961.84;;;2.38;91.56
59475;BME280;45288;51.136;16.928;2024-01-15T10:19:06;97929.56;;;2.31;90.03
59475;BME280;45288;51.136;16.928;2024-01-15T10:21:51;97950.66;;;2.38;92.71
59475;BME280;45288;51.136;16.928;2024-01-15T10:24:31;97942.28;;;2.34;91.61
59475;BME280;45288;51.136;16.928;2024-01-15T10:27:18;97941.84;;;2.40;90.97
59475;BME280;45288;51.136;16.928;2024-01-15T10:30:00;97926.50;;;2.37;89.57
59475;BME280;45288;51.136;16.928;2024-01-15T10:32:58;97938.88;;;2.45;90.01
59475;BME280;45288;51.136;16.928;2024-01-15T10:35:39;97936.91;;;2.60;90.27
59475;BME280;45288;51.136;16.928;2024-01-15T10:38:26;97948.56;;;2.43;90.16
59475;BME280;45288;51.136;16.928;2024-01-15T10:41:06;97960.31;;;2.36;89.65
59475;BME280;45288;51.136;16.928;2024-01-15T10:43:51;97936.75;;;2.39;90.31
59475;BME280;45288;51.136;16.928;2024-01-15T10:46:31;97943.84;;;2.48;90.29
59475;BME280;45288;51.136;16.928;2024-01-15T10:49:19;97932.63;;;2.48;89.77
59475;BME280;45288;51.136;16.928;2024-01-15T10:51:59;97929.94;;;2.60;90.23
59475;BME280;45288;51.136;16.928;2024-01-15T10:54:46;97934.19;;;2.39;91.41
59475;BME280;45288;51.136;16.928;2024-01-15T10:57:26;97930.31;;;2.56;90.68
59475;BME280;45288;51.136;16.928;2024-01-15T11:00:12;97934.06;;;2.63;87.82
59475;BME280;45288;51.136;16.928;2024-01-15T11:02:55;97939.59;;;2.81;88.21
59475;BME280;45288;51.136;16.928;2024-01-15T11:05:44;97936.09;;;2.82;88.09
59475;BME280;45288;51.136;16.928;2024-01-15T11:08:30;97930.56;;;2.87;85.70
59475;BME280;45288;51.136;16.928;2024-01-15T11:11:23;97940.28;;;2.94;85.51
59475;BME280;45288;51.136;16.928;2024-01-15T11:13:56;97943.75;;;2.95;85.88
59475;BME280;45288;51.136;16.928;2024-01-15T11:16:56;97931.47;;;2.97;85.07
59475;BME280;45288;51.136;16.928;2024-01-15T11:19:48;97930.78;;;2.83;85.97
59475;BME280;45288;51.136;16.928;2024-01-15T11:22:48;97923.34;;;2.90;85.99
59475;BME280;45288;51.136;16.928;2024-01-15T11:25:34;97909.19;;;2.94;85.18
59475;BME280;45288;51.136;16.928;2024-01-15T11:28:48;97925.59;;;2.83;86.46
59475;BME280;45288;51.136;16.928;2024-01-15T11:34:58;97925.81;;;2.80;86.02
59475;BME280;45288;51.136;16.928;2024-01-15T11:40:39;97916.53;;;2.78;86.87
59475;BME280;45288;51.136;16.928;2024-01-15T11:43:19;97927.13;;;2.86;86.23
59475;BME280;45288;51.136;16.928;2024-01-15T11:46:10;97933.84;;;2.77;86.17
59475;BME280;45288;51.136;16.928;2024-01-15T11:48:54;97930.06;;;2.93;86.42
59475;BME280;45288;51.136;16.928;2024-01-15T11:51:46;97939.50;;;2.71;87.03
59475;BME280;45288;51.136;16.928;2024-01-15T11:54:27;97938.56;;;2.61;86.69
59475;BME280;45288;51.136;16.928;2024-01-15T11:57:22;97935.03;;;2.62;87.94
59475;BME280;45288;51.136;16.928;2024-01-15T12:00:05;97925.59;;;2.72;87.74
59475;BME280;45288;51.136;16.928;2024-01-15T12:02:51;97937.16;;;2.79;87.29
59475;BME280;45288;51.136;16.928;2024-01-15T12:05:31;97922.28;;;2.70;87.00
59475;BME280;45288;51.136;16.928;2024-01-15T12:08:21;97929.00;;;2.73;88.90
59475;BME280;45288;51.136;16.928;2024-01-15T12:11:06;97944.44;;;2.74;88.03
59475;BME280;45288;51.136;16.928;2024-01-15T12:13:53;97916.41;;;2.79;87.00
59475;BME280;45288;51.136;16.928;2024-01-15T12:16:34;97940.44;;;2.70;88.04
59475;BME280;45288;51.136;16.928;2024-01-15T12:19:19;97923.25;;;2.69;88.55
59475;BME280;45288;51.136;16.928;2024-01-15T12:21:58;97915.44;;;2.92;86.71
59475;BME280;45288;51.136;16.928;2024-01-15T12:24:44;97916.06;;;2.73;86.66
59475;BME280;45288;51.136;16.928;2024-01-15T12:27:24;97931.28;;;2.66;86.29
59475;BME280;45288;51.136;16.928;2024-01-15T12:30:17;97914.53;;;2.70;87.04
59475;BME280;45288;51.136;16.928;2024-01-15T12:32:51;97905.09;;;2.58;87.72
59475;BME280;45288;51.136;16.928;2024-01-15T12:35:44;97915.59;;;2.68;87.30
59475;BME280;45288;51.136;16.928;2024-01-15T12:38:19;97923.72;;;2.74;87.54
59475;BME280;45288;51.136;16.928;2024-01-15T12:41:11;97932.09;;;2.67;87.03
59475;BME280;45288;51.136;16.928;2024-01-15T12:43:44;97947.03;;;2.63;86.70
59475;BME280;45288;51.136;16.928;2024-01-15T12:46:36;97933.38;;;2.72;87.61
59475;BME280;45288;51.136;16.928;2024-01-15T12:49:09;97924.78;;;2.83;88.82
59475;BME280;45288;51.136;16.928;2024-01-15T12:52:01;97935.38;;;2.69;87.12
59475;BME280;45288;51.136;16.928;2024-01-15T12:54:34;97931.59;;;2.73;87.63
59475;BME280;45288;51.136;16.928;2024-01-15T12:57:26;97928.28;;;2.71;88.10
59475;BME280;45288;51.136;16.928;2024-01-15T12:59:59;97934.56;;;2.79;86.92
59475;BME280;45288;51.136;16.928;2024-01-15T13:02:52;97924.53;;;2.75;87.32
59475;BME280;45288;51.136;16.928;2024-01-15T13:05:26;97932.66;;;2.70;88.09
59475;BME280;45288;51.136;16.928;2024-01-15T13:08:19;97923.25;;;2.80;88.46
59475;BME280;45288;51.136;16.928;2024-01-15T13:11:13;97928.88;;;2.63;87.13
59475;BME280;45288;51.136;16.928;2024-01-15T13:13:46;97915.00;;;2.64;87.49
59475;BME280;45288;51.136;16.928;2024-01-15T13:16:39;97936.66;;;2.52;87.88
59475;BME280;45288;51.136;16.928;2024-01-15T13:19:12;97920.16;;;2.53;88.99
59475;BME280;45288;51.136;16.928;2024-01-15T13:22:04;97914.78;;;2.56;87.64
59475;BME280;45288;51.136;16.928;2024-01-15T13:24:40;97914.06;;;2.54;88.06
59475;BME280;45288;51.136;16.928;2024-01-15T13:27:32;97913.81;;;2.57;88.49
59475;BME280;45288;51.136;16.928;2024-01-15T13:30:07;97917.81;;;2.50;89.40
59475;BME280;45288;51.136;16.928;2024-01-15T13:33:00;97917.09;;;2.48;88.54
59475;BME280;45288;51.136;16.928;2024-01-15T13:35:37;97913.34;;;2.52;88.52
59475;BME280;45288;51.136;16.928;2024-01-15T13:38:29;97920.19;;;2.64;86.99
59475;BME280;45288;51.136;16.928;2024-01-15T13:41:08;97914.75;;;2.67;87.71
59475;BME280;45288;51.136;16.928;2024-01-15T13:44:00;97922.41;;;2.57;87.58
59475;BME280;45288;51.136;16.928;2024-01-15T13:46:34;97924.75;;;2.60;87.70
59475;BME280;45288;51.136;16.928;2024-01-15T13:49:26;97924.75;;;2.60;88.29
59475;BME280;45288;51.136;16.928;2024-01-15T13:51:59;97921.34;;;2.60;88.83
59475;BME280;45288;51.136;16.928;2024-01-15T13:54:51;97920.16;;;2.53;88.16
59475;BME280;45288;51.136;16.928;2024-01-15T13:57:24;97926.66;;;2.47;88.67
59475;BME280;45288;51.136;16.928;2024-01-15T14:00:16;97927.84;;;2.54;88.82
59475;BME280;45288;51.136;16.928;2024-01-15T14:02:52;97928.19;;;2.61;87.68
59475;BME280;45288;51.136;16.928;2024-01-15T14:05:44;97927.81;;;2.66;87.27
59475;BME280;45288;51.136;16.928;2024-01-15T14:08:17;97934.44;;;2.58;87.96
59475;BME280;45288;51.136;16.928;2024-01-15T14:11:09;97912.66;;;2.72;86.43
59475;BME280;45288;51.136;16.928;2024-01-15T14:13:42;97918.31;;;2.66;86.29
59475;BME280;45288;51.136;16.928;2024-01-15T14:16:34;97931.38;;;2.65;86.63
59475;BME280;45288;51.136;16.928;2024-01-15T14:19:07;97930.78;;;2.61;86.59
59475;BME280;45288;51.136;16.928;2024-01-15T14:22:00;97926.56;;;2.71;86.25
59475;BME280;45288;51.136;16.928;2024-01-15T14:24:33;97930.91;;;2.82;87.39